sensor_id;sensor_type;location;lat;lon;timestamp;temperature;humidity
67529;DHT22;54366;51.980;5.856;2023-05-10T00:01:15;15.20;85.20
67529;DHT22;54366;51.980;5.856;2023-05-10T00:03:48;15.30;85.30
67529;DHT22;54366;51.980;5.856;2023-05-10T00:06:15;15.20;85.30
67529;DHT22;54366;51.980;5.856;2023-05-10T00:08:47;15.20;85.30
67529;DHT22;54366;51.980;5.856;2023-05-10T00:11:20;15.20;85.30
67529;DHT22;54366;51.980;5.856;2023-05-10T00:13:53;15.20;85.30
67529;DHT22;54366;51.980;5.856;2023-05-10T00:16:26;15.20;85.20
67529;DHT22;54366;51.980;5.856;2023-05-10T00:18:53;15.20;85.40
67529;DHT22;54366;51.980;5.856;2023-05-10T00:21:25;15.20;85.40
67529;DHT22;54366;51.980;5.856;2023-05-10T00:23:54;15.20;85.40
67529;DHT22;54366;51.980;5.856;2023-05-10T00:26:27;15.20;85.50
67529;DHT22;54366;51.980;5.856;2023-05-10T00:29:01;15.20;85.50
67529;DHT22;54366;51.980;5.856;2023-05-10T00:31:33;15.20;85.50
67529;DHT22;54366;51.980;5.856;2023-05-10T00:34:06;15.30;85.50
67529;DHT22;54366;51.980;5.856;2023-05-10T00:36:39;15.20;86.10
67529;DHT22;54366;51.980;5.856;2023-05-10T00:39:12;15.30;85.50
67529;DHT22;54366;51.980;5.856;2023-05-10T00:41:52;15.20;85.50
67529;DHT22;54366;51.980;5.856;2023-05-10T00:44:19;15.30;85.60
67529;DHT22;54366;51.980;5.856;2023-05-10T00:46:52;15.20;85.60
67529;DHT22;54366;51.980;5.856;2023-05-10T00:49:19;15.30;85.70
67529;DHT22;54366;51.980;5.856;2023-05-10T00:51:53;15.30;85.70
67529;DHT22;54366;51.980;5.856;2023-05-10T00:54:25;15.30;85.70
67529;DHT22;54366;51.980;5.856;2023-05-10T00:56:59;15.20;85.70
67529;DHT22;54366;51.980;5.856;2023-05-10T00:59:25;15.20;85.80
67529;DHT22;54366;51.980;5.856;2023-05-10T01:01:58;15.20;85.80
67529;DHT22;54366;51.980;5.856;2023-05-10T01:04:31;15.20;85.90
67529;DHT22;54366;51.980;5.856;2023-05-10T01:07:04;15.20;85.90
67529;DHT22;54366;51.980;5.856;2023-05-10T01:09:38;15.20;85.80
67529;DHT22;54366;51.980;5.856;2023-05-10T01:12:05;15.20;85.80
67529;DHT22;54366;51.980;5.856;2023-05-10T01:14:39;15.20;85.80
67529;DHT22;54366;51.980;5.856;2023-05-10T01:17:13;15.20;85.80
67529;DHT22;54366;51.980;5.856;2023-05-10T01:19:45;15.20;85.80
67529;DHT22;54366;51.980;5.856;2023-05-10T01:26:33;15.20;85.90
67529;DHT22;54366;51.980;5.856;2023-05-10T01:29:18;15.20;86.50
67529;DHT22;54366;51.980;5.856;2023-05-10T01:32:26;15.20;86.00
67529;DHT22;54366;51.980;5.856;2023-05-10T01:38:24;15.20;86.00
67529;DHT22;54366;51.980;5.856;2023-05-10T01:41:14;15.20;85.90
67529;DHT22;54366;51.980;5.856;2023-05-10T01:43:57;15.20;85.80
67529;DHT22;54366;51.980;5.856;2023-05-10T01:46:35;15.20;85.80
67529;DHT22;54366;51.980;5.856;2023-05-10T01:49:16;15.20;85.60
67529;DHT22;54366;51.980;5.856;2023-05-10T01:51:53;15.20;85.50
67529;DHT22;54366;51.980;5.856;2023-05-10T01:54:30;15.20;85.40
67529;DHT22;54366;51.980;5.856;2023-05-10T01:57:06;15.20;85.60
67529;DHT22;54366;51.980;5.856;2023-05-10T01:59:45;15.20;85.50
67529;DHT22;54366;51.980;5.856;2023-05-10T02:02:24;15.20;85.70
67529;DHT22;54366;51.980;5.856;2023-05-10T02:04:58;15.20;85.90
67529;DHT22;54366;51.980;5.856;2023-05-10T02:07:33;15.20;85.90
67529;DHT22;54366;51.980;5.856;2023-05-10T02:10:09;15.20;86.10
67529;DHT22;54366;51.980;5.856;2023-05-10T02:12:45;15.20;86.10
67529;DHT22;54366;51.980;5.856;2023-05-10T02:15:22;15.20;86.10
67529;DHT22;54366;51.980;5.856;2023-05-10T02:17:56;15.20;86.00
67529;DHT22;54366;51.980;5.856;2023-05-10T02:20:25;15.20;85.90
67529;DHT22;54366;51.980;5.856;2023-05-10T02:22:58;15.20;85.70
67529;DHT22;54366;51.980;5.856;2023-05-10T02:25:25;15.20;85.70
67529;DHT22;54366;51.980;5.856;2023-05-10T02:28:00;15.20;85.70
67529;DHT22;54366;51.980;5.856;2023-05-10T02:30:36;15.20;85.60
67529;DHT22;54366;51.980;5.856;2023-05-10T02:33:11;15.20;85.70
67529;DHT22;54366;51.980;5.856;2023-05-10T02:35:38;15.20;85.60
67529;DHT22;54366;51.980;5.856;2023-05-10T02:38:20;15.20;85.50
67529;DHT22;54366;51.980;5.856;2023-05-10T02:41:01;15.20;85.50
67529;DHT22;54366;51.980;5.856;2023-05-10T02:43:37;15.20;85.50
67529;DHT22;54366;51.980;5.856;2023-05-10T02:46:11;15.20;85.70
67529;DHT22;54366;51.980;5.856;2023-05-10T02:48:38;15.20;85.60
67529;DHT22;54366;51.980;5.856;2023-05-10T02:51:12;15.10;85.60
67529;DHT22;54366;51.980;5.856;2023-05-10T02:53:47;15.20;85.70
67529;DHT22;54366;51.980;5.856;2023-05-10T02:56:36;15.10;85.70
67529;DHT22;54366;51.980;5.856;2023-05-10T02:59:11;15.10;86.00
67529;DHT22;54366;51.980;5.856;2023-05-10T03:01:44;15.20;86.10
67529;DHT22;54366;51.980;5.856;2023-05-10T03:04:12;15.20;86.00
67529;DHT22;54366;51.980;5.856;2023-05-10T03:06:46;15.20;86.10
67529;DHT22;54366;51.980;5.856;2023-05-10T03:09:13;15.10;86.00
67529;DHT22;54366;51.980;5.856;2023-05-10T03:13:28;15.10;85.90
67529;DHT22;54366;51.980;5.856;2023-05-10T03:15:19;15.10;85.80
67529;DHT22;54366;51.980;5.856;2023-05-10T03:18:01;15.10;85.80
67529;DHT22;54366;51.980;5.856;2023-05-10T03:20:48;15.10;85.80
67529;DHT22;54366;51.980;5.856;2023-05-10T03:23:40;15.10;85.80
67529;DHT22;54366;51.980;5.856;2023-05-10T03:26:18;15.10;85.70
67529;DHT22;54366;51.980;5.856;2023-05-10T03:29:00;15.10;85.70
67529;DHT22;54366;51.980;5.856;2023-05-10T03:31:34;15.10;85.70
67529;DHT22;54366;51.980;5.856;2023-05-10T03:34:07;15.00;85.70
67529;DHT22;54366;51.980;5.856;2023-05-10T03:36:33;15.00;85.80
67529;DHT22;54366;51.980;5.856;2023-05-10T03:39:12;15.10;85.70
67529;DHT22;54366;51.980;5.856;2023-05-10T03:41:50;15.00;85.70
67529;DHT22;54366;51.980;5.856;2023-05-10T03:44:23;15.00;85.70
67529;DHT22;54366;51.980;5.856;2023-05-10T03:46:56;15.00;85.50
67529;DHT22;54366;51.980;5.856;2023-05-10T03:49:24;15.00;85.40
67529;DHT22;54366;51.980;5.856;2023-05-10T03:51:57;14.90;85.20
67529;DHT22;54366;51.980;5.856;2023-05-10T03:54:23;14.90;85.20
67529;DHT22;54366;51.980;5.856;2023-05-10T03:56:55;15.00;85.20
67529;DHT22;54366;51.980;5.856;2023-05-10T03:59:29;14.90;85.10
67529;DHT22;54366;51.980;5.856;2023-05-10T04:02:02;14.90;85.10
67529;DHT22;54366;51.980;5.856;2023-05-10T04:04:36;14.90;85.20
67529;DHT22;54366;51.980;5.856;2023-05-10T04:07:02;14.90;85.20
67529;DHT22;54366;51.980;5.856;2023-05-10T04:09:35;14.90;85.20
67529;DHT22;54366;51.980;5.856;2023-05-10T04:12:08;14.80;84.90
67529;DHT22;54366;51.980;5.856;2023-05-10T04:14:41;14.80;85.00
67529;DHT22;54366;51.980;5.856;2023-05-10T04:17:08;14.80;85.10
67529;DHT22;54366;51.980;5.856;2023-05-10T04:19:40;14.80;85.10
67529;DHT22;54366;51.980;5.856;2023-05-10T04:22:13;14.70;84.80
67529;DHT22;54366;51.980;5.856;2023-05-10T04:24:46;14.80;84.90
67529;DHT22;54366;51.980;5.856;2023-05-10T04:27:13;14.70;85.00
67529;DHT22;54366;51.980;5.856;2023-05-10T04:29:45;14.70;85.00
67529;DHT22;54366;51.980;5.856;2023-05-10T04:32:18;14.80;84.90
67529;DHT22;54366;51.980;5.856;2023-05-10T04:34:52;14.70;85.00
67529;DHT22;54366;51.980;5.856;2023-05-10T04:37:25;14.70;85.10
67529;DHT22;54366;51.980;5.856;2023-05-10T04:39:58;14.70;85.20
67529;DHT22;54366;51.980;5.856;2023-05-10T04:42:40;14.70;85.20
67529;DHT22;54366;51.980;5.856;2023-05-10T04:45:13;14.70;85.20
67529;DHT22;54366;51.980;5.856;2023-05-10T04:47:43;14.70;85.20
67529;DHT22;54366;51.980;5.856;2023-05-10T04:50:15;14.70;85.20
67529;DHT22;54366;51.980;5.856;2023-05-10T04:52:48;14.70;85.20
67529;DHT22;54366;51.980;5.856;2023-05-10T04:55:21;14.70;85.20
67529;DHT22;54366;51.980;5.856;2023-05-10T04:57:48;14.70;85.20
67529;DHT22;54366;51.980;5.856;2023-05-10T05:00:21;14.70;85.30
67529;DHT22;54366;51.980;5.856;2023-05-10T05:02:53;14.70;85.40
67529;DHT22;54366;51.980;5.856;2023-05-10T05:05:27;14.70;85.50
67529;DHT22;54366;51.980;5.856;2023-05-10T05:07:59;14.80;85.70
67529;DHT22;54366;51.980;5.856;2023-05-10T05:10:26;14.80;85.80
67529;DHT22;54366;51.980;5.856;2023-05-10T05:12:59;14.80;85.80
67529;DHT22;54366;51.980;5.856;2023-05-10T05:15:33;14.80;85.60
67529;DHT22;54366;51.980;5.856;2023-05-10T05:18:05;14.80;85.50
67529;DHT22;54366;51.980;5.856;2023-05-10T05:20:38;14.80;85.60
67529;DHT22;54366;51.980;5.856;2023-05-10T05:23:11;14.80;85.50
67529;DHT22;54366;51.980;5.856;2023-05-10T05:25:44;14.80;85.50
67529;DHT22;54366;51.980;5.856;2023-05-10T05:28:18;14.80;85.30
67529;DHT22;54366;51.980;5.856;2023-05-10T05:30:50;14.80;85.30
67529;DHT22;54366;51.980;5.856;2023-05-10T05:33:23;14.80;85.30
67529;DHT22;54366;51.980;5.856;2023-05-10T05:35:50;14.80;85.40
67529;DHT22;54366;51.980;5.856;2023-05-10T05:38:22;14.90;85.40
67529;DHT22;54366;51.980;5.856;2023-05-10T05:41:05;14.90;85.40
67529;DHT22;54366;51.980;5.856;2023-05-10T05:43:37;14.90;85.40
67529;DHT22;54366;51.980;5.856;2023-05-10T05:46:10;14.90;85.30
67529;DHT22;54366;51.980;5.856;2023-05-10T05:48:43;14.90;85.30
67529;DHT22;54366;51.980;5.856;2023-05-10T05:51:10;14.90;85.30
67529;DHT22;54366;51.980;5.856;2023-05-10T05:53:42;14.90;85.50
67529;DHT22;54366;51.980;5.856;2023-05-10T05:56:15;15.00;85.60
67529;DHT22;54366;51.980;5.856;2023-05-10T05:58:52;15.00;85.40
67529;DHT22;54366;51.980;5.856;2023-05-10T06:01:19;15.00;85.40
67529;DHT22;54366;51.980;5.856;2023-05-10T06:03:51;15.00;85.40
67529;DHT22;54366;51.980;5.856;2023-05-10T06:06:24;15.00;85.40
67529;DHT22;54366;51.980;5.856;2023-05-10T06:09:00;15.00;85.20
67529;DHT22;54366;51.980;5.856;2023-05-10T06:11:36;15.00;85.20
67529;DHT22;54366;51.980;5.856;2023-05-10T06:14:04;15.00;85.20
67529;DHT22;54366;51.980;5.856;2023-05-10T06:16:39;15.00;85.20
67529;DHT22;54366;51.980;5.856;2023-05-10T06:19:12;15.00;85.40
67529;DHT22;54366;51.980;5.856;2023-05-10T06:21:45;15.00;85.40
67529;DHT22;54366;51.980;5.856;2023-05-10T06:24:12;15.10;85.40
67529;DHT22;54366;51.980;5.856;2023-05-10T06:26:44;15.00;85.40
67529;DHT22;54366;51.980;5.856;2023-05-10T06:29:17;15.00;85.40
67529;DHT22;54366;51.980;5.856;2023-05-10T06:31:50;15.00;85.40
67529;DHT22;54366;51.980;5.856;2023-05-10T06:34:24;15.10;85.40
67529;DHT22;54366;51.980;5.856;2023-05-10T06:36:50;15.10;85.50
67529;DHT22;54366;51.980;5.856;2023-05-10T06:39:22;15.10;85.40
67529;DHT22;54366;51.980;5.856;2023-05-10T06:42:03;15.00;85.30
67529;DHT22;54366;51.980;5.856;2023-05-10T06:44:36;15.00;85.40
67529;DHT22;54366;51.980;5.856;2023-05-10T06:47:09;15.00;85.50
67529;DHT22;54366;51.980;5.856;2023-05-10T06:49:42;15.00;85.50
67529;DHT22;54366;51.980;5.856;2023-05-10T06:52:09;15.00;85.40
67529;DHT22;54366;51.980;5.856;2023-05-10T06:54:41;15.00;85.40
67529;DHT22;54366;51.980;5.856;2023-05-10T06:57:14;15.00;85.50
67529;DHT22;54366;51.980;5.856;2023-05-10T06:59:47;15.00;85.40
67529;DHT22;54366;51.980;5.856;2023-05-10T07:02:14;15.10;85.40
67529;DHT22;54366;51.980;5.856;2023-05-10T07:04:48;15.10;85.40
67529;DHT22;54366;51.980;5.856;2023-05-10T07:07:21;15.10;85.40
67529;DHT22;54366;51.980;5.856;2023-05-10T07:09:47;15.10;85.30
67529;DHT22;54366;51.980;5.856;2023-05-10T07:12:19;15.20;85.50
67529;DHT22;54366;51.980;5.856;2023-05-10T07:14:53;15.20;85.50
67529;DHT22;54366;51.980;5.856;2023-05-10T07:17:19;15.20;85.40
67529;DHT22;54366;51.980;5.856;2023-05-10T07:19:51;15.20;85.50
67529;DHT22;54366;51.980;5.856;2023-05-10T07:22:24;15.30;85.50
67529;DHT22;54366;51.980;5.856;2023-05-10T07:24:51;15.30;85.50
67529;DHT22;54366;51.980;5.856;2023-05-10T07:27:23;15.30;85.40
67529;DHT22;54366;51.980;5.856;2023-05-10T07:29:56;15.30;85.40
67529;DHT22;54366;51.980;5.856;2023-05-10T07:32:29;15.40;85.40
67529;DHT22;54366;51.980;5.856;2023-05-10T07:35:03;15.40;85.20
67529;DHT22;54366;51.980;5.856;2023-05-10T07:37:35;15.40;85.30
67529;DHT22;54366;51.980;5.856;2023-05-10T07:40:15;15.50;85.20
67529;DHT22;54366;51.980;5.856;2023-05-10T07:42:54;15.50;85.70
67529;DHT22;54366;51.980;5.856;2023-05-10T07:45:28;15.60;85.30
67529;DHT22;54366;51.980;5.856;2023-05-10T07:47:54;15.50;85.00
67529;DHT22;54366;51.980;5.856;2023-05-10T07:50:27;15.60;85.20
67529;DHT22;54366;51.980;5.856;2023-05-10T07:53:00;15.60;85.00
67529;DHT22;54366;51.980;5.856;2023-05-10T07:55:33;15.60;85.00
67529;DHT22;54366;51.980;5.856;2023-05-10T07:58:00;15.70;85.00
67529;DHT22;54366;51.980;5.856;2023-05-10T08:00:33;15.60;85.00
67529;DHT22;54366;51.980;5.856;2023-05-10T08:03:07;15.70;85.00
67529;DHT22;54366;51.980;5.856;2023-05-10T08:05:33;15.70;85.00
67529;DHT22;54366;51.980;5.856;2023-05-10T08:08:06;15.70;85.00
67529;DHT22;54366;51.980;5.856;2023-05-10T08:10:40;15.70;84.80
67529;DHT22;54366;51.980;5.856;2023-05-10T08:13:06;15.80;84.80
67529;DHT22;54366;51.980;5.856;2023-05-10T08:15:38;15.80;84.70
67529;DHT22;54366;51.980;5.856;2023-05-10T08:18:11;15.80;84.60
67529;DHT22;54366;51.980;5.856;2023-05-10T08:20:45;15.90;84.70
67529;DHT22;54366;51.980;5.856;2023-05-10T08:23:17;16.00;84.40
67529;DHT22;54366;51.980;5.856;2023-05-10T08:25:50;16.00;84.10
67529;DHT22;54366;51.980;5.856;2023-05-10T08:28:24;16.00;84.00
67529;DHT22;54366;51.980;5.856;2023-05-10T08:30:56;16.00;83.80
67529;DHT22;54366;51.980;5.856;2023-05-10T08:33:29;16.00;82.80
67529;DHT22;54366;51.980;5.856;2023-05-10T08:36:03;15.80;82.10
67529;DHT22;54366;51.980;5.856;2023-05-10T08:38:42;15.70;82.20
67529;DHT22;54366;51.980;5.856;2023-05-10T08:41:28;15.60;82.40
67529;DHT22;54366;51.980;5.856;2023-05-10T08:44:04;15.70;82.50
67529;DHT22;54366;51.980;5.856;2023-05-10T08:46:41;15.70;83.30
67529;DHT22;54366;51.980;5.856;2023-05-10T08:49:17;15.70;82.80
67529;DHT22;54366;51.980;5.856;2023-05-10T08:51:51;15.80;82.90
67529;DHT22;54366;51.980;5.856;2023-05-10T08:54:24;15.80;83.00
67529;DHT22;54366;51.980;5.856;2023-05-10T08:56:57;15.90;83.20
67529;DHT22;54366;51.980;5.856;2023-05-10T08:59:30;16.00;83.20
67529;DHT22;54366;51.980;5.856;2023-05-10T09:02:04;16.00;83.00
67529;DHT22;54366;51.980;5.856;2023-05-10T09:04:36;16.10;83.00
67529;DHT22;54366;51.980;5.856;2023-05-10T09:07:03;16.30;82.70
67529;DHT22;54366;51.980;5.856;2023-05-10T09:09:36;16.30;82.40
67529;DHT22;54366;51.980;5.856;2023-05-10T09:12:10;16.40;81.80
67529;DHT22;54366;51.980;5.856;2023-05-10T09:14:44;16.40;81.40
67529;DHT22;54366;51.980;5.856;2023-05-10T09:17:18;16.40;81.40
67529;DHT22;54366;51.980;5.856;2023-05-10T09:19:45;16.50;80.60
67529;DHT22;54366;51.980;5.856;2023-05-10T09:22:17;16.60;79.90
67529;DHT22;54366;51.980;5.856;2023-05-10T09:25:10;16.60;79.80
67529;DHT22;54366;51.980;5.856;2023-05-10T09:27:47;16.60;78.60
67529;DHT22;54366;51.980;5.856;2023-05-10T09:30:25;16.60;77.40
67529;DHT22;54366;51.980;5.856;2023-05-10T09:32:59;16.60;77.70
67529;DHT22;54366;51.980;5.856;2023-05-10T09:35:33;16.50;78.20
67529;DHT22;54366;51.980;5.856;2023-05-10T09:38:05;16.50;75.50
67529;DHT22;54366;51.980;5.856;2023-05-10T09:40:38;16.40;74.70
67529;DHT22;54366;51.980;5.856;2023-05-10T09:43:20;16.30;75.30
67529;DHT22;54366;51.980;5.856;2023-05-10T09:45:52;16.20;75.60
67529;DHT22;54366;51.980;5.856;2023-05-10T09:48:25;16.20;76.40
67529;DHT22;54366;51.980;5.856;2023-05-10T09:50:58;16.30;77.10
67529;DHT22;54366;51.980;5.856;2023-05-10T09:53:31;16.30;77.30
67529;DHT22;54366;51.980;5.856;2023-05-10T09:56:05;16.40;77.40
67529;DHT22;54366;51.980;5.856;2023-05-10T09:58:39;16.40;77.50
67529;DHT22;54366;51.980;5.856;2023-05-10T10:01:11;16.40;77.40
67529;DHT22;54366;51.980;5.856;2023-05-10T10:03:45;16.40;77.60
67529;DHT22;54366;51.980;5.856;2023-05-10T10:06:21;16.50;77.70
67529;DHT22;54366;51.980;5.856;2023-05-10T10:08:54;16.40;77.50
67529;DHT22;54366;51.980;5.856;2023-05-10T10:11:28;16.50;77.50
67529;DHT22;54366;51.980;5.856;2023-05-10T10:13:55;16.50;77.20
67529;DHT22;54366;51.980;5.856;2023-05-10T10:16:31;16.40;75.80
67529;DHT22;54366;51.980;5.856;2023-05-10T10:19:06;16.40;76.00
67529;DHT22;54366;51.980;5.856;2023-05-10T10:21:32;16.40;75.30
67529;DHT22;54366;51.980;5.856;2023-05-10T10:24:06;16.40;75.30
67529;DHT22;54366;51.980;5.856;2023-05-10T10:26:39;16.30;75.60
67529;DHT22;54366;51.980;5.856;2023-05-10T10:29:31;16.30;76.40
67529;DHT22;54366;51.980;5.856;2023-05-10T10:32:33;16.30;76.20
67529;DHT22;54366;51.980;5.856;2023-05-10T10:35:08;16.30;76.50
67529;DHT22;54366;51.980;5.856;2023-05-10T10:37:46;16.40;76.30
67529;DHT22;54366;51.980;5.856;2023-05-10T10:40:30;16.50;75.60
67529;DHT22;54366;51.980;5.856;2023-05-10T10:43:29;16.50;76.00
67529;DHT22;54366;51.980;5.856;2023-05-10T10:46:16;16.50;75.80
67529;DHT22;54366;51.980;5.856;2023-05-10T10:49:09;16.50;76.00
67529;DHT22;54366;51.980;5.856;2023-05-10T10:55:13;16.60;76.60
67529;DHT22;54366;51.980;5.856;2023-05-10T10:57:54;16.60;76.50
67529;DHT22;54366;51.980;5.856;2023-05-10T11:00:38;16.70;76.90
67529;DHT22;54366;51.980;5.856;2023-05-10T11:03:13;16.80;77.10
67529;DHT22;54366;51.980;5.856;2023-05-10T11:05:50;16.80;77.20
67529;DHT22;54366;51.980;5.856;2023-05-10T11:08:32;16.90;76.60
67529;DHT22;54366;51.980;5.856;2023-05-10T11:11:06;17.10;76.80
67529;DHT22;54366;51.980;5.856;2023-05-10T11:13:43;17.20;77.00
67529;DHT22;54366;51.980;5.856;2023-05-10T11:16:22;17.20;76.10
67529;DHT22;54366;51.980;5.856;2023-05-10T11:19:15;17.30;76.10
67529;DHT22;54366;51.980;5.856;2023-05-10T11:21:51;17.40;75.80
67529;DHT22;54366;51.980;5.856;2023-05-10T11:24:27;17.50;74.80
67529;DHT22;54366;51.980;5.856;2023-05-10T11:27:01;17.50;74.50
67529;DHT22;54366;51.980;5.856;2023-05-10T11:29:40;17.60;74.00
67529;DHT22;54366;51.980;5.856;2023-05-10T11:32:13;17.60;73.60
67529;DHT22;54366;51.980;5.856;2023-05-10T11:34:47;17.60;73.90
67529;DHT22;54366;51.980;5.856;2023-05-10T11:37:21;17.70;72.80
67529;DHT22;54366;51.980;5.856;2023-05-10T11:39:47;17.70;72.70
67529;DHT22;54366;51.980;5.856;2023-05-10T11:42:20;17.70;73.00
67529;DHT22;54366;51.980;5.856;2023-05-10T11:47:34;17.80;73.00
67529;DHT22;54366;51.980;5.856;2023-05-10T11:50:01;17.90;72.80
67529;DHT22;54366;51.980;5.856;2023-05-10T11:52:38;18.00;73.00
67529;DHT22;54366;51.980;5.856;2023-05-10T11:55:05;18.10;72.90
67529;DHT22;54366;51.980;5.856;2023-05-10T11:57:38;18.20;72.50
67529;DHT22;54366;51.980;5.856;2023-05-10T12:00:15;18.20;72.10
67529;DHT22;54366;51.980;5.856;2023-05-10T12:02:42;18.30;72.00
67529;DHT22;54366;51.980;5.856;2023-05-10T12:05:15;18.30;71.70
67529;DHT22;54366;51.980;5.856;2023-05-10T12:07:42;18.30;71.40
67529;DHT22;54366;51.980;5.856;2023-05-10T12:10:15;18.30;69.50
67529;DHT22;54366;51.980;5.856;2023-05-10T12:12:46;18.30;69.60
67529;DHT22;54366;51.980;5.856;2023-05-10T12:15:23;18.30;70.30
67529;DHT22;54366;51.980;5.856;2023-05-10T12:17:57;18.40;70.60
67529;DHT22;54366;51.980;5.856;2023-05-10T12:20:26;18.50;69.70
67529;DHT22;54366;51.980;5.856;2023-05-10T12:23:00;18.60;69.50
67529;DHT22;54366;51.980;5.856;2023-05-10T12:25:33;18.60;70.00
67529;DHT22;54366;51.980;5.856;2023-05-10T12:28:08;18.60;70.30
67529;DHT22;54366;51.980;5.856;2023-05-10T12:30:42;18.70;70.30
67529;DHT22;54366;51.980;5.856;2023-05-10T12:33:15;18.70;69.80
67529;DHT22;54366;51.980;5.856;2023-05-10T12:35:51;18.80;68.80
67529;DHT22;54366;51.980;5.856;2023-05-10T12:38:44;18.70;67.60
67529;DHT22;54366;51.980;5.856;2023-05-10T12:41:26;18.70;67.70
67529;DHT22;54366;51.980;5.856;2023-05-10T12:43:59;18.70;67.80
67529;DHT22;54366;51.980;5.856;2023-05-10T12:46:39;18.70;68.40
67529;DHT22;54366;51.980;5.856;2023-05-10T12:49:05;18.80;68.50
67529;DHT22;54366;51.980;5.856;2023-05-10T12:51:39;18.70;68.40
67529;DHT22;54366;51.980;5.856;2023-05-10T12:54:05;18.80;68.70
67529;DHT22;54366;51.980;5.856;2023-05-10T12:56:38;18.80;68.10
67529;DHT22;54366;51.980;5.856;2023-05-10T12:59:11;18.90;68.40
67529;DHT22;54366;51.980;5.856;2023-05-10T13:01:37;19.00;68.30
67529;DHT22;54366;51.980;5.856;2023-05-10T13:04:13;19.00;68.50
67529;DHT22;54366;51.980;5.856;2023-05-10T13:06:46;19.20;68.60
67529;DHT22;54366;51.980;5.856;2023-05-10T13:09:19;19.30;68.40
67529;DHT22;54366;51.980;5.856;2023-05-10T13:11:53;19.40;68.10
67529;DHT22;54366;51.980;5.856;2023-05-10T13:14:20;19.50;67.70
67529;DHT22;54366;51.980;5.856;2023-05-10T13:16:53;19.50;67.10
67529;DHT22;54366;51.980;5.856;2023-05-10T13:19:26;19.50;67.50
67529;DHT22;54366;51.980;5.856;2023-05-10T13:21:52;19.60;67.40
67529;DHT22;54366;51.980;5.856;2023-05-10T13:24:25;19.50;66.90
67529;DHT22;54366;51.980;5.856;2023-05-10T13:26:58;19.50;67.10
67529;DHT22;54366;51.980;5.856;2023-05-10T13:29:31;19.50;67.20
67529;DHT22;54366;51.980;5.856;2023-05-10T13:31:58;19.40;67.60
67529;DHT22;54366;51.980;5.856;2023-05-10T13:34:31;19.40;67.90
67529;DHT22;54366;51.980;5.856;2023-05-10T13:37:04;19.40;67.60
67529;DHT22;54366;51.980;5.856;2023-05-10T13:39:37;19.40;67.70
67529;DHT22;54366;51.980;5.856;2023-05-10T13:42:17;19.40;68.00
67529;DHT22;54366;51.980;5.856;2023-05-10T13:44:51;19.30;68.50
67529;DHT22;54366;51.980;5.856;2023-05-10T13:47:17;19.30;68.70
67529;DHT22;54366;51.980;5.856;2023-05-10T13:49:50;19.30;68.80
67529;DHT22;54366;51.980;5.856;2023-05-10T13:52:23;19.10;69.20
67529;DHT22;54366;51.980;5.856;2023-05-10T13:54:56;19.00;69.40
67529;DHT22;54366;51.980;5.856;2023-05-10T13:57:30;19.00;70.00
67529;DHT22;54366;51.980;5.856;2023-05-10T14:00:03;18.90;70.00
67529;DHT22;54366;51.980;5.856;2023-05-10T14:02:37;18.80;69.80
67529;DHT22;54366;51.980;5.856;2023-05-10T14:05:10;18.70;69.60
67529;DHT22;54366;51.980;5.856;2023-05-10T14:07:36;18.60;69.90
67529;DHT22;54366;51.980;5.856;2023-05-10T14:10:09;18.50;70.10
67529;DHT22;54366;51.980;5.856;2023-05-10T14:12:35;18.50;70.90
67529;DHT22;54366;51.980;5.856;2023-05-10T14:15:09;18.40;71.20
67529;DHT22;54366;51.980;5.856;2023-05-10T14:17:44;18.40;71.30
67529;DHT22;54366;51.980;5.856;2023-05-10T14:20:17;18.40;71.30
67529;DHT22;54366;51.980;5.856;2023-05-10T14:22:50;18.40;71.70
67529;DHT22;54366;51.980;5.856;2023-05-10T14:25:23;18.40;71.30
67529;DHT22;54366;51.980;5.856;2023-05-10T14:27:56;18.40;71.00
67529;DHT22;54366;51.980;5.856;2023-05-10T14:30:25;18.40;71.30
67529;DHT22;54366;51.980;5.856;2023-05-10T14:32:58;18.30;71.40
67529;DHT22;54366;51.980;5.856;2023-05-10T14:35:33;18.30;71.70
67529;DHT22;54366;51.980;5.856;2023-05-10T14:38:06;18.30;71.80
67529;DHT22;54366;51.980;5.856;2023-05-10T14:40:39;18.10;71.00
67529;DHT22;54366;51.980;5.856;2023-05-10T14:43:12;18.10;71.60
67529;DHT22;54366;51.980;5.856;2023-05-10T14:45:52;18.00;71.70
67529;DHT22;54366;51.980;5.856;2023-05-10T14:48:25;18.00;71.00
67529;DHT22;54366;51.980;5.856;2023-05-10T14:50:58;17.80;70.50
67529;DHT22;54366;51.980;5.856;2023-05-10T14:53:24;17.60;71.20
67529;DHT22;54366;51.980;5.856;2023-05-10T14:55:57;17.50;71.90
67529;DHT22;54366;51.980;5.856;2023-05-10T14:58:23;17.50;72.10
67529;DHT22;54366;51.980;5.856;2023-05-10T15:00:56;17.40;72.00
67529;DHT22;54366;51.980;5.856;2023-05-10T15:03:29;17.40;72.60
67529;DHT22;54366;51.980;5.856;2023-05-10T15:06:03;17.40;73.10
67529;DHT22;54366;51.980;5.856;2023-05-10T15:08:36;17.60;73.10
67529;DHT22;54366;51.980;5.856;2023-05-10T15:11:09;17.60;72.70
67529;DHT22;54366;51.980;5.856;2023-05-10T15:13:42;17.70;72.60
67529;DHT22;54366;51.980;5.856;2023-05-10T15:16:15;17.80;72.40
67529;DHT22;54366;51.980;5.856;2023-05-10T15:18:41;17.80;72.10
67529;DHT22;54366;51.980;5.856;2023-05-10T15:21:14;17.80;71.40
67529;DHT22;54366;51.980;5.856;2023-05-10T15:23:40;17.80;71.20
67529;DHT22;54366;51.980;5.856;2023-05-10T15:26:13;17.70;71.10
67529;DHT22;54366;51.980;5.856;2023-05-10T15:28:46;17.70;71.30
67529;DHT22;54366;51.980;5.856;2023-05-10T15:31:19;17.60;71.30
67529;DHT22;54366;51.980;5.856;2023-05-10T15:33:45;17.70;71.00
67529;DHT22;54366;51.980;5.856;2023-05-10T15:36:18;17.60;70.80
67529;DHT22;54366;51.980;5.856;2023-05-10T15:38:51;17.70;71.50
67529;DHT22;54366;51.980;5.856;2023-05-10T15:41:30;17.70;71.60
67529;DHT22;54366;51.980;5.856;2023-05-10T15:44:03;17.70;71.60
67529;DHT22;54366;51.980;5.856;2023-05-10T15:46:29;17.80;71.50
67529;DHT22;54366;51.980;5.856;2023-05-10T15:49:03;17.70;71.30
67529;DHT22;54366;51.980;5.856;2023-05-10T15:51:36;17.70;71.60
67529;DHT22;54366;51.980;5.856;2023-05-10T15:54:02;17.80;71.70
67529;DHT22;54366;51.980;5.856;2023-05-10T15:56:35;17.80;71.80
67529;DHT22;54366;51.980;5.856;2023-05-10T15:59:08;17.80;71.90
67529;DHT22;54366;51.980;5.856;2023-05-10T16:01:35;17.80;72.00
67529;DHT22;54366;51.980;5.856;2023-05-10T16:04:09;17.80;72.20
67529;DHT22;54366;51.980;5.856;2023-05-10T16:06:42;17.80;71.60
67529;DHT22;54366;51.980;5.856;2023-05-10T16:09:15;17.90;71.80
67529;DHT22;54366;51.980;5.856;2023-05-10T16:11:48;17.90;71.90
67529;DHT22;54366;51.980;5.856;2023-05-10T16:14:21;18.00;71.90
67529;DHT22;54366;51.980;5.856;2023-05-10T16:16:56;18.00;71.80
67529;DHT22;54366;51.980;5.856;2023-05-10T16:19:29;18.10;71.90
67529;DHT22;54366;51.980;5.856;2023-05-10T16:22:02;18.10;71.50
67529;DHT22;54366;51.980;5.856;2023-05-10T16:24:28;18.10;71.20